Time;durP1;ratioP1;P1;durP2;ratioP2;P2;SDS_P1;SDS_P2;PMS_P1;PMS_P2;Temp;Humidity;BMP_temperature;BMP_pressure;BME280_temperature;BME280_humidity;BME280_pressure;Samples;Min_cycle;Max_cycle;Signal;HPM_P1;HPM_P2
2022/07/01 00:00:29;;;;;;;12.38;10.68;;;;;;;14.23;86.72;101445.38;5054494;28;20506;-80
2022/07/01 00:02:54;;;;;;;13.63;11.25;;;;;;;14.21;85.83;101452.66;5053927;28;20043;-80
2022/07/01 00:05:20;;;;;;;17.63;11.70;;;;;;;14.14;85.51;101451.44;5054399;28;20028;-80
2022/07/01 00:07:46;;;;;;;12.02;10.82;;;;;;;14.12;85.46;101448.94;5051820;28;20028;-80
2022/07/01 00:10:12;;;;;;;12.85;11.50;;;;;;;14.07;86.52;101438.63;5042459;28;20171;-80
2022/07/01 00:12:37;;;;;;;12.25;10.88;;;;;;;14.06;86.86;101439.59;5074171;28;20108;-80
2022/07/01 00:15:03;;;;;;;12.85;11.55;;;;;;;14.00;86.68;101440.06;5056510;28;20048;-80
2022/07/01 00:17:29;;;;;;;13.38;11.68;;;;;;;13.99;86.78;101445.53;5054155;28;20104;-79
2022/07/01 00:19:54;;;;;;;12.38;11.07;;;;;;;13.98;86.59;101438.53;5054154;28;20064;-80
2022/07/01 00:22:20;;;;;;;12.95;11.48;;;;;;;13.96;87.31;101435.13;5053920;28;20493;-80
2022/07/01 00:24:46;;;;;;;14.40;12.90;;;;;;;13.87;86.78;101444.72;5054255;28;20063;-80
2022/07/01 00:27:13;;;;;;;13.52;12.05;;;;;;;13.88;87.48;101433.91;5050265;28;20127;-80
2022/07/01 00:29:38;;;;;;;13.70;12.15;;;;;;;13.86;87.62;101427.03;5045625;28;20029;-80
2022/07/01 00:32:07;;;;;;;14.10;12.07;;;;;;;13.83;87.46;101435.28;5035242;28;20031;-80
2022/07/01 00:34:32;;;;;;;14.25;12.75;;;;;;;13.80;87.64;101436.34;5046138;28;20025;-80
2022/07/01 00:36:59;;;;;;;14.38;12.35;;;;;;;13.73;87.38;101416.47;5035072;28;20040;-80
2022/07/01 00:39:25;;;;;;;15.65;12.85;;;;;;;13.74;88.67;101403.97;5052867;28;20033;-79
2022/07/01 00:41:50;;;;;;;15.20;13.18;;;;;;;13.74;88.50;101406.63;5054072;28;20025;-79
2022/07/01 00:44:19;;;;;;;14.27;12.80;;;;;;;13.70;89.20;101403.38;5059290;28;20020;-80
2022/07/01 00:46:46;;;;;;;14.50;12.48;;;;;;;13.69;87.69;101404.38;5062224;28;20024;-80
2022/07/01 00:49:12;;;;;;;15.25;12.45;;;;;;;13.65;88.59;101405.56;5056399;28;20024;-79
2022/07/01 00:51:38;;;;;;;17.80;12.95;;;;;;;13.64;89.21;101401.22;5053002;28;20037;-80
2022/07/01 00:54:03;;;;;;;15.40;13.52;;;;;;;13.57;89.21;101410.66;5053202;28;20032;-79
2022/07/01 00:56:29;;;;;;;14.63;13.15;;;;;;;13.59;89.28;101414.06;5035107;28;20025;-80
2022/07/01 00:58:55;;;;;;;16.90;13.38;;;;;;;13.57;89.83;101416.84;5052716;28;20037;-79
2022/07/01 01:01:22;;;;;;;15.45;12.55;;;;;;;13.60;89.45;101418.44;5038879;28;20029;-80
2022/07/01 01:03:48;;;;;;;15.07;13.43;;;;;;;13.58;89.77;101425.72;5085973;22;20081;-82
2022/07/01 01:06:14;;;;;;;16.65;13.60;;;;;;;13.57;89.43;101426.69;5056487;28;20020;-82
2022/07/01 01:08:40;;;;;;;18.40;13.57;;;;;;;13.58;90.18;101431.06;5093856;28;20031;-82
2022/07/01 01:11:06;;;;;;;17.50;13.45;;;;;;;13.59;90.49;101433.63;5082928;28;20062;-82
2022/07/01 01:13:31;;;;;;;16.13;14.07;;;;;;;13.59;90.54;101432.75;5074635;28;20055;-82
2022/07/01 01:15:57;;;;;;;17.30;14.27;;;;;;;13.61;90.38;101444.16;5058353;28;20017;-81
2022/07/01 01:18:22;;;;;;;17.58;14.32;;;;;;;13.61;90.84;101450.34;5078347;28;20042;-82
2022/07/01 01:20:47;;;;;;;19.13;15.63;;;;;;;13.62;90.32;101459.19;5083879;28;20036;-82
2022/07/01 01:23:13;;;;;;;19.67;15.50;;;;;;;13.63;90.50;101461.75;5088105;28;20465;-82
2022/07/01 01:25:38;;;;;;;20.13;15.70;;;;;;;13.65;91.49;101465.13;5073947;28;20024;-82
2022/07/01 01:28:04;;;;;;;18.17;14.07;;;;;;;13.64;91.14;101465.28;5091549;28;20036;-82
2022/07/01 01:30:29;;;;;;;19.58;15.73;;;;;;;13.65;91.60;101461.63;5074008;28;20271;-81
2022/07/01 01:32:55;;;;;;;20.30;14.50;;;;;;;13.66;90.38;101466.84;5085610;28;20035;-81
2022/07/01 01:35:21;;;;;;;17.52;15.00;;;;;;;13.67;90.28;101465.88;5089037;28;20082;-82
2022/07/01 01:37:47;;;;;;;19.40;14.88;;;;;;;13.68;91.15;101461.38;5093751;28;20024;-82
2022/07/01 01:40:13;;;;;;;21.83;15.82;;;;;;;13.68;91.36;101458.72;5058123;28;20098;-82
2022/07/01 01:42:39;;;;;;;22.77;16.92;;;;;;;13.66;92.02;101468.66;5093222;28;20031;-82
2022/07/01 01:45:05;;;;;;;20.48;16.33;;;;;;;13.67;91.80;101465.88;5093623;28;20024;-82
2022/07/01 01:47:31;;;;;;;20.23;15.48;;;;;;;13.68;90.75;101453.38;5093872;28;20046;-81
2022/07/01 01:49:57;;;;;;;20.80;16.70;;;;;;;13.72;91.52;101453.97;5079706;28;20072;-81
2022/07/01 01:52:22;;;;;;;22.67;16.23;;;;;;;13.69;90.88;101463.09;5084466;28;20060;-81
2022/07/01 01:54:47;;;;;;;20.90;15.90;;;;;;;13.71;90.93;101460.31;5087441;28;20020;-83
2022/07/01 01:57:13;;;;;;;20.23;16.43;;;;;;;13.71;91.37;101458.47;5073355;28;20063;-82
2022/07/01 01:59:38;;;;;;;25.02;16.98;;;;;;;13.74;91.14;101447.56;5085627;28;20335;-82
2022/07/01 02:02:03;;;;;;;23.52;16.23;;;;;;;13.76;91.88;101452.78;5089070;28;20471;-82
2022/07/01 02:04:29;;;;;;;25.08;17.10;;;;;;;13.75;92.13;101461.75;5072970;28;20048;-82
2022/07/01 02:06:54;;;;;;;21.15;16.30;;;;;;;13.76;91.59;101472.28;5072857;28;20056;-82
2022/07/01 02:09:20;;;;;;;21.92;16.98;;;;;;;13.74;91.39;101468.91;5073122;28;20047;-82
2022/07/01 02:11:46;;;;;;;23.95;16.98;;;;;;;13.75;92.07;101475.94;5068316;28;20429;-82
2022/07/01 02:14:11;;;;;;;23.52;17.33;;;;;;;13.75;91.49;101478.59;5071822;28;20170;-81
2022/07/01 02:16:36;;;;;;;24.77;16.55;;;;;;;13.74;91.37;101479.59;5073336;28;20040;-81
2022/07/01 02:19:02;;;;;;;22.42;16.75;;;;;;;13.73;91.26;101491.22;5072688;28;20025;-82
2022/07/01 02:21:28;;;;;;;21.55;16.75;;;;;;;13.72;91.96;101492.19;5073307;28;20024;-81
2022/07/01 02:23:54;;;;;;;19.20;15.95;;;;;;;13.72;91.16;101497.53;5072956;28;20024;-82
2022/07/01 02:26:19;;;;;;;22.92;17.58;;;;;;;13.68;91.38;101494.25;5070313;28;20037;-82
2022/07/01 02:28:45;;;;;;;25.00;17.25;;;;;;;13.67;91.24;101502.38;5073171;28;20029;-81
2022/07/01 02:31:10;;;;;;;23.80;18.58;;;;;;;13.67;91.29;101510.38;5066678;28;20483;-81
2022/07/01 02:33:35;;;;;;;23.10;17.60;;;;;;;13.68;91.17;101496.09;5073559;28;20024;-81
2022/07/01 02:36:00;;;;;;;23.85;17.77;;;;;;;13.67;91.30;101457.00;5073246;28;20021;-81
2022/07/01 02:38:30;;;;;;;24.98;17.52;;;;;;;13.65;90.76;101448.28;5068118;28;20021;-81
2022/07/01 02:40:56;;;;;;;20.63;15.90;;;;;;;13.64;91.04;101466.13;5067645;28;20032;-82
2022/07/01 02:43:21;;;;;;;27.60;17.67;;;;;;;13.66;91.72;101474.84;5072393;28;20028;-82
2022/07/01 02:45:46;;;;;;;21.77;17.33;;;;;;;13.67;91.63;101473.03;5073034;28;20290;-81
2022/07/01 02:48:12;;;;;;;22.10;16.85;;;;;;;13.64;91.43;101474.13;5073055;28;20107;-82
2022/07/01 02:50:37;;;;;;;22.38;16.88;;;;;;;13.64;91.61;101498.16;5073033;28;20452;-82
2022/07/01 02:53:03;;;;;;;20.80;17.20;;;;;;;13.63;90.81;101501.78;5060246;28;20040;-82
2022/07/01 02:55:29;;;;;;;23.98;17.65;;;;;;;13.63;91.55;101492.94;5072710;28;20032;-82
2022/07/01 02:57:54;;;;;;;24.33;17.30;;;;;;;13.64;91.37;101495.50;5072836;28;20043;-82
2022/07/01 03:00:20;;;;;;;21.77;16.90;;;;;;;13.64;90.84;101500.81;5071395;28;20077;-82
2022/07/01 03:02:46;;;;;;;26.60;17.85;;;;;;;13.66;91.50;101495.38;5064815;28;20029;-82
2022/07/01 03:05:11;;;;;;;27.98;19.50;;;;;;;13.65;91.96;101496.31;5071005;28;20044;-81
2022/07/01 03:07:40;;;;;;;29.60;20.20;;;;;;;13.61;92.16;101489.53;5071081;28;20478;-82
2022/07/01 03:10:07;;;;;;;27.35;19.15;;;;;;;13.62;92.18;101496.56;5072403;28;20120;-81
2022/07/01 03:12:35;;;;;;;29.35;21.25;;;;;;;13.61;92.30;101493.06;5072415;28;20485;-82
2022/07/01 03:15:02;;;;;;;27.75;19.85;;;;;;;13.62;91.88;101497.44;5072526;28;20037;-82
2022/07/01 03:17:29;;;;;;;26.90;20.42;;;;;;;13.65;92.36;101504.34;5072168;28;20078;-82
2022/07/01 03:19:56;;;;;;;27.85;20.15;;;;;;;13.63;91.21;101506.28;5072666;28;20021;-82
2022/07/01 03:22:23;;;;;;;27.38;19.73;;;;;;;13.65;91.99;101496.31;5072030;28;20063;-82
2022/07/01 03:24:50;;;;;;;26.63;20.17;;;;;;;13.67;91.66;101492.56;5073395;28;20020;-82
2022/07/01 03:27:17;;;;;;;34.10;20.27;;;;;;;13.65;91.08;101497.16;5075617;28;20469;-82
2022/07/01 03:29:43;;;;;;;29.20;20.67;;;;;;;13.67;91.83;101497.03;5075844;28;20033;-82
2022/07/01 03:32:09;;;;;;;26.80;20.75;;;;;;;13.66;91.31;101516.72;5073927;28;20036;-82
2022/07/01 03:34:39;;;;;;;28.17;20.75;;;;;;;13.64;90.76;101508.84;5075993;28;20048;-82
2022/07/01 03:37:05;;;;;;;30.73;22.35;;;;;;;13.57;91.65;101518.28;5075505;28;20032;-82
2022/07/01 03:39:34;;;;;;;26.23;21.30;;;;;;;13.58;91.58;101535.16;5075668;28;20036;-81
2022/07/01 03:42:00;;;;;;;28.98;21.88;;;;;;;13.56;91.20;101524.59;5076450;28;20104;-82
2022/07/01 03:44:25;;;;;;;33.58;22.10;;;;;;;13.51;90.82;101535.63;5075926;28;20115;-81
2022/07/01 03:46:51;;;;;;;28.05;22.75;;;;;;;13.49;91.26;101542.91;5076276;28;20077;-81
2022/07/01 03:49:16;;;;;;;30.42;23.48;;;;;;;13.45;91.42;101536.09;5076216;28;20025;-82
2022/07/01 03:51:42;;;;;;;28.17;22.35;;;;;;;13.48;91.20;101548.38;5076054;28;20044;-81
2022/07/01 03:56:51;;;;;;;29.55;24.05;;;;;;;13.45;91.08;101554.78;5075745;28;20042;-81
2022/07/01 03:59:16;;;;;;;29.85;24.00;;;;;;;13.44;90.82;101557.56;5076066;28;20021;-81
2022/07/01 04:01:42;;;;;;;31.00;25.25;;;;;;;13.42;90.91;101562.19;5075519;28;20090;-81
2022/07/01 04:04:07;;;;;;;31.90;25.92;;;;;;;13.38;91.42;101564.25;5075757;28;20139;-81
2022/07/01 04:06:32;;;;;;;30.83;26.90;;;;;;;13.39;91.26;101565.06;5075864;28;20095;-82
2022/07/01 04:08:58;;;;;;;34.78;27.90;;;;;;;13.40;91.20;101562.28;5075769;28;20033;-81
2022/07/01 04:11:23;;;;;;;32.70;27.08;;;;;;;13.42;91.40;101570.19;5075940;28;20020;-81
2022/07/01 04:13:54;;;;;;;32.80;27.33;;;;;;;13.44;92.39;101563.78;5076852;28;20024;-82
2022/07/01 04:16:20;;;;;;;35.20;28.05;;;;;;;13.46;91.78;101555.66;5076046;28;20107;-81
2022/07/01 04:18:46;;;;;;;33.38;26.13;;;;;;;13.48;91.35;101569.72;5071967;28;20091;-81
2022/07/01 04:23:56;;;;;;;26.65;22.25;;;;;;;13.51;90.54;101570.31;5075442;28;20143;-82
2022/07/01 04:26:25;;;;;;;30.80;22.77;;;;;;;13.51;91.66;101562.31;5076168;28;20056;-81
2022/07/01 04:28:52;;;;;;;29.60;21.98;;;;;;;13.53;91.30;101559.53;5070871;28;20031;-81
2022/07/01 04:31:18;;;;;;;29.40;22.45;;;;;;;13.54;91.65;101558.56;5075234;28;20090;-82
2022/07/01 04:33:44;;;;;;;26.50;20.42;;;;;;;13.54;90.57;101566.59;5074368;28;20478;-82
2022/07/01 04:36:09;;;;;;;28.73;20.85;;;;;;;13.52;91.01;101571.16;5074352;28;20033;-81
2022/07/01 04:38:34;;;;;;;25.67;19.57;;;;;;;13.51;91.69;101570.31;5064309;28;20056;-81
2022/07/01 04:43:43;;;;;;;20.05;16.92;;;;;;;13.56;91.17;101571.81;5075132;28;20524;-82
2022/07/01 04:46:09;;;;;;;20.25;15.95;;;;;;;13.55;90.52;101570.09;5075230;28;20021;-82
2022/07/01 04:48:34;;;;;;;19.03;15.17;;;;;;;13.59;90.37;101580.41;5074697;28;20069;-82
2022/07/01 04:50:59;;;;;;;23.05;16.00;;;;;;;13.64;91.21;101580.06;5075288;28;20395;-82
2022/07/01 04:53:24;;;;;;;21.67;15.50;;;;;;;13.64;90.16;101574.72;5074969;28;20032;-82
2022/07/01 04:55:50;;;;;;;23.42;15.93;;;;;;;13.65;91.40;101573.75;5075454;28;20279;-82
2022/07/01 04:58:15;;;;;;;19.45;14.40;;;;;;;13.72;91.16;101571.44;5074901;28;20024;-82
2022/07/01 05:00:40;;;;;;;19.80;14.05;;;;;;;13.73;90.12;101565.13;5074726;28;20033;-82
2022/07/01 05:03:06;;;;;;;20.13;14.63;;;;;;;13.76;90.86;101572.91;5072899;28;20410;-82
2022/07/01 05:05:34;;;;;;;20.85;14.52;;;;;;;13.79;90.49;101573.50;5073661;28;20115;-82
2022/07/01 05:07:59;;;;;;;19.27;14.15;;;;;;;13.79;89.86;101580.66;5075011;28;20475;-81
2022/07/01 05:10:25;;;;;;;16.88;13.57;;;;;;;13.83;90.20;101580.31;5074631;28;20104;-82
2022/07/01 05:12:50;;;;;;;19.15;12.82;;;;;;;13.81;89.91;101592.09;5073031;28;20078;-82
2022/07/01 05:15:15;;;;;;;20.07;12.87;;;;;;;13.81;90.34;101587.59;5074548;28;20055;-82
2022/07/01 05:23:08;;;;;;;14.65;12.27;;;;;;;13.96;89.80;101585.53;5075088;28;20071;-82
2022/07/01 05:25:34;;;;;;;17.67;12.38;;;;;;;14.02;89.62;101584.19;5074904;28;20382;-82
2022/07/01 05:27:59;;;;;;;18.77;12.60;;;;;;;14.02;89.51;101589.53;5074273;28;20024;-82
2022/07/01 05:30:24;;;;;;;15.35;11.77;;;;;;;14.03;89.63;101589.41;5074285;28;20031;-83
2022/07/01 05:32:50;;;;;;;15.93;11.90;;;;;;;14.03;88.56;101585.91;5074049;28;20112;-83
2022/07/01 05:35:15;;;;;;;16.23;11.63;;;;;;;14.02;88.14;101581.50;5073992;28;20463;-82
2022/07/01 05:37:41;;;;;;;16.75;11.77;;;;;;;14.03;89.21;101580.56;5074122;28;20028;-82
2022/07/01 05:40:07;;;;;;;15.65;11.40;;;;;;;14.05;89.49;101582.16;5073832;28;20024;-83
2022/07/01 05:42:33;;;;;;;15.45;12.40;;;;;;;14.07;89.22;101585.53;5059953;28;20481;-84
2022/07/01 05:44:58;;;;;;;19.00;12.35;;;;;;;14.08;88.36;101594.38;5073545;28;20021;-83
2022/07/01 05:47:23;;;;;;;15.48;12.18;;;;;;;14.15;89.45;101592.06;5073593;28;20052;-83
2022/07/01 05:49:49;;;;;;;16.02;12.50;;;;;;;14.12;89.76;101590.53;5073867;28;20033;-82
2022/07/01 05:52:14;;;;;;;15.02;12.48;;;;;;;14.08;89.08;101583.69;5073589;28;20032;-80
2022/07/01 05:54:39;;;;;;;20.17;12.52;;;;;;;14.21;89.25;101600.44;5073150;28;20033;-78
2022/07/01 05:57:04;;;;;;;16.58;12.75;;;;;;;14.35;90.42;101596.66;5073993;28;20024;-78
2022/07/01 05:59:30;;;;;;;15.48;12.88;;;;;;;14.52;89.49;101597.13;5074277;28;20028;-79
2022/07/01 06:01:55;;;;;;;15.25;12.88;;;;;;;14.68;88.06;101592.25;5070971;28;20085;-79
2022/07/01 06:04:20;;;;;;;18.90;13.18;;;;;;;14.84;88.77;101582.97;5073623;28;20085;-79
2022/07/01 06:06:46;;;;;;;16.10;13.15;;;;;;;15.00;87.74;101583.38;5073496;28;20501;-79
2022/07/01 06:09:11;;;;;;;18.08;12.82;;;;;;;15.05;86.83;101588.34;5073268;28;20078;-78
2022/07/01 06:11:36;;;;;;;18.30;13.38;;;;;;;15.07;86.13;101584.59;5073130;28;20043;-78
2022/07/01 06:14:02;;;;;;;13.48;11.65;;;;;;;15.13;85.98;101581.38;5061218;28;20471;-78
2022/07/01 06:16:27;;;;;;;15.63;11.93;;;;;;;15.27;85.03;101600.75;5070471;28;20063;-77
2022/07/01 06:18:52;;;;;;;15.38;11.25;;;;;;;15.39;84.37;101602.41;5074037;28;20032;-78
2022/07/01 06:21:18;;;;;;;13.57;11.00;;;;;;;15.59;84.59;101595.38;5073665;28;20127;-77
2022/07/01 06:23:45;;;;;;;16.90;10.50;;;;;;;15.71;83.48;101594.28;5072618;28;20640;-78
2022/07/01 06:26:10;;;;;;;19.13;10.40;;;;;;;15.71;83.17;101593.44;5072771;28;20051;-78
2022/07/01 06:28:36;;;;;;;14.02;9.65;;;;;;;15.78;82.20;101589.28;5073586;28;20025;-78
2022/07/01 06:31:04;;;;;;;16.85;9.77;;;;;;;15.80;80.36;101594.50;5072782;28;20029;-78
2022/07/01 06:33:30;;;;;;;13.68;9.75;;;;;;;15.81;81.28;101582.81;5073461;28;20040;-78
2022/07/01 06:35:56;;;;;;;12.85;9.43;;;;;;;15.94;81.93;101575.41;5073567;28;20094;-81
2022/07/01 06:38:22;;;;;;;12.85;8.80;;;;;;;16.12;81.97;101578.31;5073473;28;20031;-80
2022/07/01 06:41:26;;;;;;;14.23;9.20;;;;;;;16.31;79.94;101582.03;5069020;28;20017;-80
2022/07/01 06:43:32;;;;;;;12.60;8.52;;;;;;;16.57;77.50;101587.69;5074604;28;20090;-80
2022/07/01 06:45:58;;;;;;;13.80;8.25;;;;;;;16.74;78.37;101583.50;5070216;28;20032;-79
2022/07/01 06:48:23;;;;;;;10.35;7.95;;;;;;;16.99;77.79;101579.47;5073597;28;20047;-78
2022/07/01 06:50:48;;;;;;;13.57;8.47;;;;;;;17.24;77.96;101580.72;5073767;28;20048;-78
2022/07/01 06:53:24;;;;;;;16.00;7.67;;;;;;;17.37;74.27;101585.78;5070768;28;20291;-77
2022/07/01 06:55:49;;;;;;;12.23;7.20;;;;;;;17.51;73.80;101579.09;5074742;28;20275;-79
2022/07/01 06:58:14;;;;;;;10.88;7.07;;;;;;;17.68;72.86;101582.88;5073426;28;20028;-79
2022/07/01 07:00:39;;;;;;;8.82;6.82;;;;;;;17.90;72.10;101582.56;5071722;28;20096;-78
2022/07/01 07:03:05;;;;;;;11.73;6.70;;;;;;;18.11;72.16;101578.78;5070534;28;20060;-79
2022/07/01 07:05:30;;;;;;;10.52;6.50;;;;;;;18.21;69.88;101581.41;5072171;28;20513;-79
2022/07/01 07:07:56;;;;;;;6.38;5.50;;;;;;;18.47;68.63;101586.94;5076791;28;20103;-79
2022/07/01 07:10:22;;;;;;;11.05;5.53;;;;;;;18.70;68.95;101591.88;5074278;28;20537;-80
2022/07/01 07:12:50;;;;;;;11.90;5.30;;;;;;;18.99;69.47;101597.91;5067470;28;20032;-81
2022/07/01 07:15:16;;;;;;;8.05;4.40;;;;;;;19.25;67.66;101607.03;5078743;28;20109;-81
2022/07/01 07:17:41;;;;;;;7.13;4.22;;;;;;;19.30;66.74;101619.03;5075852;28;20087;-79
2022/07/01 07:20:08;;;;;;;7.10;3.30;;;;;;;19.30;65.62;101621.75;5063077;28;20025;-78
2022/07/01 07:22:33;;;;;;;5.28;3.50;;;;;;;19.44;64.83;101620.31;5076745;28;20475;-79
2022/07/01 07:24:58;;;;;;;5.60;2.90;;;;;;;19.48;62.74;101616.31;5074043;28;20044;-80
2022/07/01 07:27:24;;;;;;;6.25;2.90;;;;;;;19.56;63.51;101620.91;5068901;28;20108;-80
2022/07/01 07:29:49;;;;;;;7.57;2.97;;;;;;;19.65;61.20;101614.59;5065001;28;20370;-79
2022/07/01 07:32:15;;;;;;;12.90;2.55;;;;;;;19.83;61.89;101609.16;5075871;28;20530;-79
2022/07/01 07:34:40;;;;;;;6.25;2.50;;;;;;;19.74;58.21;101610.09;5076625;28;20024;-79
2022/07/01 07:37:06;;;;;;;8.15;2.50;;;;;;;19.84;60.61;101604.63;5075452;28;20367;-80
2022/07/01 07:39:31;;;;;;;7.00;2.33;;;;;;;19.80;60.86;101608.63;5075920;28;20056;-80
2022/07/01 07:41:57;;;;;;;7.32;2.90;;;;;;;19.75;59.13;101607.25;5076034;28;20497;-80
2022/07/01 07:44:25;;;;;;;7.95;2.47;;;;;;;19.71;59.30;101613.94;5083775;28;20032;-80
2022/07/01 07:46:50;;;;;;;4.57;1.80;;;;;;;19.75;57.29;101619.88;5074363;28;20104;-80
2022/07/01 07:49:16;;;;;;;3.67;1.73;;;;;;;20.00;57.39;101611.94;5055864;28;20052;-80
2022/07/01 07:51:42;;;;;;;7.75;2.05;;;;;;;20.35;59.35;101619.03;5056153;28;20313;-79
2022/07/01 07:54:07;;;;;;;7.22;1.90;;;;;;;20.66;58.06;101627.38;5075496;28;20467;-80
2022/07/01 07:56:32;;;;;;;4.70;1.70;;;;;;;20.98;55.96;101630.31;5075044;28;20094;-79
2022/07/01 07:58:58;;;;;;;2.28;1.30;;;;;;;21.22;55.84;101633.03;5075631;28;20056;-80
2022/07/01 08:01:25;;;;;;;5.03;1.80;;;;;;;21.47;55.39;101630.38;5091908;28;20024;-80
2022/07/01 08:03:51;;;;;;;5.57;1.40;;;;;;;21.80;51.42;101628.47;5085691;28;20080;-80
2022/07/01 08:06:16;;;;;;;4.45;1.50;;;;;;;21.74;50.58;101628.31;5064046;28;20059;-80
2022/07/01 08:08:42;;;;;;;4.40;1.48;;;;;;;21.76;52.41;101626.25;5067971;28;20120;-80
2022/07/01 08:11:07;;;;;;;3.45;1.38;;;;;;;21.88;51.22;101634.84;5071533;28;20028;-80
2022/07/01 08:13:33;;;;;;;2.55;1.05;;;;;;;22.07;49.48;101639.88;5075335;28;20040;-80
2022/07/01 08:15:58;;;;;;;4.03;1.10;;;;;;;22.32;50.22;101639.81;5074878;28;20028;-79
2022/07/01 08:18:24;;;;;;;3.72;1.50;;;;;;;22.46;48.78;101647.19;5074524;28;20078;-78
2022/07/01 08:20:52;;;;;;;2.47;1.00;;;;;;;22.70;49.59;101646.22;5076059;28;20054;-79
2022/07/01 08:23:19;;;;;;;2.35;0.90;;;;;;;23.08;46.63;101646.34;5074719;28;20025;-79
2022/07/01 08:25:44;;;;;;;4.35;0.80;;;;;;;23.36;47.23;101658.50;5071518;28;20104;-80
2022/07/01 08:28:09;;;;;;;3.83;1.00;;;;;;;23.42;45.53;101664.03;5071125;28;20147;-80
2022/07/01 08:30:34;;;;;;;3.33;1.30;;;;;;;23.60;46.51;101662.88;5074838;28;20052;-80
2022/07/01 08:33:00;;;;;;;4.75;1.20;;;;;;;23.60;44.90;101663.69;5084528;28;20282;-80
2022/07/01 08:35:25;;;;;;;3.88;1.00;;;;;;;23.54;44.64;101663.59;5074893;28;20035;-79
2022/07/01 08:37:50;;;;;;;2.70;0.90;;;;;;;23.76;43.76;101659.13;5074418;28;20063;-79
2022/07/01 08:40:16;;;;;;;4.60;1.03;;;;;;;23.79;45.25;101653.34;5074601;28;20271;-79
2022/07/01 08:42:42;;;;;;;2.75;1.40;;;;;;;23.92;44.72;101660.88;5070754;28;20329;-80
2022/07/01 08:45:08;;;;;;;2.40;1.20;;;;;;;23.99;43.46;101670.78;5074819;28;20359;-79
2022/07/01 08:47:33;;;;;;;1.65;1.00;;;;;;;23.76;42.19;101676.25;5074440;28;20040;-80
2022/07/01 08:50:01;;;;;;;2.60;1.20;;;;;;;23.55;43.28;101676.97;5074212;28;20017;-79
2022/07/01 08:52:28;;;;;;;4.65;1.30;;;;;;;23.52;43.44;101687.34;5074148;28;20324;-80
2022/07/01 08:54:53;;;;;;;3.75;1.27;;;;;;;23.59;45.01;101682.88;5074383;28;20028;-80
2022/07/01 08:57:22;;;;;;;4.13;2.00;;;;;;;23.81;42.41;101694.69;5074522;28;20099;-79
2022/07/01 09:00:02;;;;;;;6.47;1.30;;;;;;;23.72;44.68;101695.81;5074577;28;20270;-80
2022/07/01 09:03:03;;;;;;;3.80;1.17;;;;;;;23.81;45.23;101702.81;5074553;28;20016;-80
2022/07/01 09:05:31;;;;;;;2.15;1.02;;;;;;;23.73;43.19;101698.34;5062008;28;20036;-81
2022/07/01 09:07:59;;;;;;;3.92;1.40;;;;;;;23.69;42.49;101699.72;5074466;28;20028;-81
2022/07/01 09:10:26;;;;;;;3.47;1.50;;;;;;;23.78;42.44;101697.75;5054394;28;20064;-80
2022/07/01 09:12:51;;;;;;;4.43;1.75;;;;;;;23.46;43.00;101707.88;5066847;28;20024;-80
2022/07/01 09:15:25;;;;;;;3.47;1.20;;;;;;;23.45;43.62;101693.47;5074386;28;20035;-80
2022/07/01 09:17:51;;;;;;;5.22;1.50;;;;;;;23.15;42.73;101680.84;5074507;28;20061;-80
2022/07/01 09:20:25;;;;;;;3.38;1.30;;;;;;;23.15;44.38;101678.13;5073978;28;20463;-80
2022/07/01 09:23:05;;;;;;;4.47;1.42;;;;;;;23.44;43.94;101686.38;5072219;28;20024;-80
2022/07/01 09:25:39;;;;;;;3.60;1.23;;;;;;;23.52;41.61;101692.75;5069358;28;20435;-80
2022/07/01 09:28:10;;;;;;;3.08;1.10;;;;;;;23.63;42.37;101695.00;5066314;28;20016;-81
2022/07/01 09:30:40;;;;;;;4.45;1.20;;;;;;;23.65;40.57;101695.69;5073970;28;20134;-81
2022/07/01 09:33:07;;;;;;;2.75;1.00;;;;;;;23.40;44.88;101700.50;5074392;28;20028;-81
2022/07/01 09:35:35;;;;;;;4.70;1.40;;;;;;;23.42;42.43;101701.16;5073848;28;20375;-80
2022/07/01 09:38:00;;;;;;;3.67;1.40;;;;;;;23.28;42.85;101705.47;5073806;28;20020;-80
2022/07/01 09:40:44;;;;;;;4.15;1.40;;;;;;;23.29;44.52;101707.16;5073878;28;20550;-80
2022/07/01 09:43:14;;;;;;;2.72;1.30;;;;;;;23.50;44.33;101703.78;5073843;28;20111;-80
2022/07/01 09:45:49;;;;;;;5.03;1.30;;;;;;;23.35;45.01;101711.88;5071301;28;20344;-80
2022/07/01 09:48:14;;;;;;;3.40;1.38;;;;;;;23.57;42.86;101703.91;5063771;28;20459;-80
2022/07/01 09:50:39;;;;;;;4.57;1.50;;;;;;;23.69;43.08;101701.59;5073669;28;20021;-80
2022/07/01 09:53:05;;;;;;;5.07;1.45;;;;;;;23.83;43.38;101703.50;5073411;28;20270;-80
2022/07/01 09:55:34;;;;;;;6.68;1.33;;;;;;;24.25;44.05;101698.50;5073683;28;20104;-80
2022/07/01 09:57:59;;;;;;;4.45;1.55;;;;;;;24.57;40.05;101702.72;5053620;28;20021;-80
2022/07/01 10:00:26;;;;;;;2.70;0.95;;;;;;;24.98;39.73;101702.19;5072162;28;20016;-80
2022/07/01 10:02:53;;;;;;;4.10;1.35;;;;;;;25.01;41.42;101706.38;5062122;28;20032;-80
2022/07/01 10:05:23;;;;;;;2.53;1.20;;;;;;;25.35;38.24;101707.56;5072831;28;20035;-79
2022/07/01 10:08:05;;;;;;;2.38;1.20;;;;;;;25.65;39.36;101700.13;5073492;28;20536;-80
2022/07/01 10:10:52;;;;;;;2.33;1.10;;;;;;;26.02;40.32;101715.28;5070378;28;21499;-80
2022/07/01 10:13:23;;;;;;;4.70;1.20;;;;;;;25.81;37.60;101709.84;5073653;28;20021;-79
2022/07/01 10:15:49;;;;;;;2.88;0.98;;;;;;;25.87;36.32;101711.78;5055597;28;20576;-79
2022/07/01 10:18:21;;;;;;;2.92;0.90;;;;;;;26.43;36.82;101713.66;5063353;28;20036;-80
2022/07/01 10:20:47;;;;;;;2.90;0.98;;;;;;;26.28;36.96;101724.66;5073306;28;20032;-80
2022/07/01 10:23:12;;;;;;;3.00;0.98;;;;;;;26.04;37.78;101726.78;5073584;28;20028;-80
2022/07/01 10:25:45;;;;;;;1.77;0.80;;;;;;;26.39;36.99;101729.53;5073218;28;20023;-78
2022/07/01 10:28:15;;;;;;;3.08;1.10;;;;;;;26.54;35.19;101723.94;5072884;28;20807;-79
2022/07/01 10:30:50;;;;;;;4.15;1.00;;;;;;;26.85;35.96;101725.38;5072860;28;20031;-80
2022/07/01 10:33:39;;;;;;;2.63;0.82;;;;;;;26.84;36.88;101736.47;5071411;28;20501;-80
2022/07/01 10:36:09;;;;;;;3.60;1.13;;;;;;;26.36;36.22;101750.88;5074852;28;20090;-80
2022/07/01 10:38:35;;;;;;;2.42;0.75;;;;;;;26.07;36.11;101741.06;5077385;28;20036;-80
2022/07/01 10:41:09;;;;;;;3.53;0.82;;;;;;;26.46;35.05;101737.72;5076789;28;20527;-80
2022/07/01 10:43:37;;;;;;;3.53;0.98;;;;;;;26.69;35.42;101742.91;5076860;28;20042;-80
2022/07/01 10:46:04;;;;;;;2.22;1.00;;;;;;;26.65;34.56;101738.91;5077238;28;20056;-81
2022/07/01 10:48:33;;;;;;;3.10;0.98;;;;;;;26.58;36.13;101736.13;5075820;28;20127;-80
2022/07/01 10:51:02;;;;;;;2.65;1.00;;;;;;;26.56;35.03;101734.66;5077401;28;20078;-80
2022/07/01 10:53:46;;;;;;;3.55;0.98;;;;;;;26.75;36.17;101725.75;5067906;28;20028;-80
2022/07/01 10:56:18;;;;;;;3.08;0.77;;;;;;;26.66;36.12;101731.56;5077271;28;20424;-80
2022/07/01 10:58:43;;;;;;;2.80;1.00;;;;;;;26.26;34.71;101725.91;5078370;28;20021;-81
2022/07/01 11:01:09;;;;;;;3.92;0.95;;;;;;;26.08;34.13;101724.53;5077800;28;20024;-80
2022/07/01 11:03:39;;;;;;;2.30;0.90;;;;;;;25.99;35.68;101725.72;5077038;28;20072;-78
2022/07/01 11:06:05;;;;;;;5.18;1.30;;;;;;;26.19;34.73;101731.31;5071741;28;20053;-79
2022/07/01 11:08:32;;;;;;;3.78;1.00;;;;;;;25.95;36.08;101727.16;5075885;28;20064;-78
2022/07/01 11:11:02;;;;;;;1.70;0.82;;;;;;;26.06;36.32;101725.78;5076437;28;20028;-79
2022/07/01 11:13:28;;;;;;;4.90;1.13;;;;;;;26.07;35.60;101722.84;5077002;28;20028;-78
2022/07/01 11:15:55;;;;;;;3.92;1.02;;;;;;;26.03;36.13;101711.53;5077061;28;20064;-79
2022/07/01 11:18:21;;;;;;;3.28;1.00;;;;;;;26.39;35.57;101713.19;5075665;28;20028;-78
2022/07/01 11:20:47;;;;;;;5.03;1.10;;;;;;;26.61;36.68;101713.06;5072458;28;20055;-78
2022/07/01 11:23:12;;;;;;;3.17;0.68;;;;;;;26.78;35.96;101705.44;5078167;28;20083;-79
2022/07/01 11:25:38;;;;;;;4.07;0.82;;;;;;;26.86;34.67;101704.41;5076893;28;20021;-78
2022/07/01 11:28:03;;;;;;;2.22;0.80;;;;;;;26.89;35.21;101702.09;5076686;28;20351;-79